地図

経路データ

SID SEASON NUMBER BASIN SUBBASIN NAME ISO_TIME NATURE LAT LON WMO_WIND WMO_PRES WMO_AGENCY TRACK_TYPE DIST2LAND LANDFALL IFLAG USA_AGENCY USA_ATCF_ID USA_LAT USA_LON USA_RECORD USA_STATUS USA_WIND USA_PRES USA_SSHS USA_R34_NE USA_R34_SE USA_R34_SW USA_R34_NW USA_R50_NE USA_R50_SE USA_R50_SW USA_R50_NW USA_R64_NE USA_R64_SE USA_R64_SW USA_R64_NW USA_POCI USA_ROCI USA_RMW USA_EYE TOKYO_LAT TOKYO_LON TOKYO_GRADE TOKYO_WIND TOKYO_PRES TOKYO_R50_DIR TOKYO_R50_LONG TOKYO_R50_SHORT TOKYO_R30_DIR TOKYO_R30_LONG TOKYO_R30_SHORT TOKYO_LAND CMA_LAT CMA_LON CMA_CAT CMA_WIND CMA_PRES HKO_LAT HKO_LON HKO_CAT HKO_WIND HKO_PRES NEWDELHI_LAT NEWDELHI_LON NEWDELHI_GRADE NEWDELHI_WIND NEWDELHI_PRES NEWDELHI_CI NEWDELHI_DP NEWDELHI_POCI REUNION_LAT REUNION_LON REUNION_TYPE REUNION_WIND REUNION_PRES REUNION_TNUM REUNION_CI REUNION_RMW REUNION_R34_NE REUNION_R34_SE REUNION_R34_SW REUNION_R34_NW REUNION_R50_NE REUNION_R50_SE REUNION_R50_SW REUNION_R50_NW REUNION_R64_NE REUNION_R64_SE REUNION_R64_SW REUNION_R64_NW BOM_LAT BOM_LON BOM_TYPE BOM_WIND BOM_PRES BOM_TNUM BOM_CI BOM_RMW BOM_R34_NE BOM_R34_SE BOM_R34_SW BOM_R34_NW BOM_R50_NE BOM_R50_SE BOM_R50_SW BOM_R50_NW BOM_R64_NE BOM_R64_SE BOM_R64_SW BOM_R64_NW BOM_ROCI BOM_POCI BOM_EYE BOM_POS_METHOD BOM_PRES_METHOD NADI_LAT NADI_LON NADI_CAT NADI_WIND NADI_PRES WELLINGTON_LAT WELLINGTON_LON WELLINGTON_WIND WELLINGTON_PRES DS824_LAT DS824_LON DS824_STAGE DS824_WIND DS824_PRES TD9636_LAT TD9636_LON TD9636_STAGE TD9636_WIND TD9636_PRES TD9635_LAT TD9635_LON TD9635_WIND TD9635_PRES TD9635_ROCI NEUMANN_LAT NEUMANN_LON NEUMANN_CLASS NEUMANN_WIND NEUMANN_PRES MLC_LAT MLC_LON MLC_CLASS MLC_WIND MLC_PRES USA_GUST BOM_GUST BOM_GUST_PER REUNION_GUST REUNION_GUST_PER USA_SEAHGT USA_SEARAD_NE USA_SEARAD_SE USA_SEARAD_SW USA_SEARAD_NW STORM_SPEED STORM_DIR
1961058N06132 1961 26 WP MM SUSAN 1961-02-26 18:00:00 TS 6.00000 132.000 main 536 529 __O___________ -1 6.00000 132.000 0 1004 7 315
1961058N06132 1961 26 WP MM SUSAN 1961-02-26 21:00:00 TS 6.24751 131.755 main 538 509 __P___________ -1 6.24751 131.755 0 1004 13 321
1961058N06132 1961 26 WP MM SUSAN 1961-02-27 00:00:00 TS 7.00000 131.175 main 509 463 __OO__________ -1 6.50000 131.500 0 1004 8.50000 130.200 TD 25 1006 14 320
1961058N06132 1961 26 WP MM SUSAN 1961-02-27 03:00:00 TS 7.34668 130.821 main 463 452 __PP__________ -1 6.75751 131.235 0 1002 8.52503 129.992 TD 27 1004 7 320
1961058N06132 1961 26 WP MM SUSAN 1961-02-27 06:00:00 TS 7.57000 130.700 main 452 441 O_OO_____O_O__ jtwc_wp WP021961 7.30000 131.200 25 -1 7.00000 131.000 1 29 1000 8.60000 129.800 TD 30 1003 7.30000 131.200 TC 25 7.30000 131.200 25 1013 180 5 332
1961058N06132 1961 26 WP MM SUSAN 1961-02-27 09:00:00 TS 7.75321 130.601 main 441 441 P_PP_____P_P__ WP021961 7.45251 131.100 27 -1 7.20749 130.820 1 29 1000 8.74999 129.635 TD 32 1001 7.45251 131.100 TC 27 7.45251 131.100 27 1012 180 3 341
1961058N06132 1961 26 WP MM SUSAN 1961-02-27 12:00:00 TS 7.84444 130.600 main 441 441 O_OO_____OOO__ jtwc_wp WP021961 7.60000 131.000 30 -1 7.40000 130.700 1 29 1000 8.90000 129.500 TS 35 1000 7.60000 131.000 TC 30 7.60000 131.000 1 30 7.60000 131.000 30 1012 180 2 0
1961058N06132 1961 26 WP MM SUSAN 1961-02-27 15:00:00 TS 7.93923 130.576 main 441 431 P_PP_____PPP__ WP021961 7.74250 130.900 30 -1 7.59249 130.635 1 1002 8.95749 129.385 TS 35 1000 7.74250 130.900 TC 30 7.77658 130.897 1 32 7.74250 130.900 30 1011 180 3 337
1961058N06132 1961 26 WP MM SUSAN 1961-02-27 18:00:00 TS 8.08076 130.504 main 432 422 O_OO_____OPO__ jtwc_wp WP021961 7.90000 130.800 30 -1 7.80000 130.600 0 1005 9.00000 129.300 TS 35 1000 7.90000 130.800 TC 30 7.95252 130.795 1 35 7.90000 130.800 30 1010 180 4 335
1961058N06132 1961 26 WP MM SUSAN 1961-02-27 21:00:00 TS 8.25537 130.428 main 424 424 P_PP_____PPP__ WP021961 8.09250 130.693 35 0 8.05000 130.543 0 1005 9.07749 129.250 TS 32 1002 8.09250 130.693 TC 35 8.12720 130.696 1 37 8.09250 130.693 35 1009 180 4 338
1961058N06132 1961 26 WP MM SUSAN 1961-02-28 00:00:00 TS 8.45000 130.350 main 417 415 O_OO_____OOO__ jtwc_wp WP021961 8.30000 130.600 40 0 8.30000 130.500 0 1006 9.20000 129.200 TD 30 1004 8.30000 130.600 TC 40 8.30000 130.600 2 40 8.30000 130.600 40 1009 180 4 341
1961058N06132 1961 26 WP MM SUSAN 1961-02-28 03:00:00 TS 8.64890 130.291 main 419 415 P_PP_____PPP__ WP021961 8.50749 130.550 37 0 8.50750 130.492 0 1006 9.39251 129.093 TD 27 1006 8.50749 130.550 TC 37 8.47093 130.510 2 37 8.50749 130.550 37 1009 180 4 344
1961058N06132 1961 26 WP MM SUSAN 1961-02-28 06:00:00 TS 8.84042 130.238 main 415 415 O_OO_____OPO__ jtwc_wp WP021961 8.70000 130.500 35 0 8.70000 130.500 0 1006 9.60000 129.000 TD 25 1008 8.70000 130.500 TC 35 8.64250 130.428 2 35 8.70000 130.500 35 1010 180 4 340
1961058N06132 1961 26 WP MM SUSAN 1961-02-28 09:00:00 TS 9.00172 130.167 main 422 411 P_PP_____PPP__ WP021961 8.84251 130.393 32 -1 8.90000 130.493 0 1006 9.76499 128.977 TD 25 1007 8.84251 130.393 TC 32 8.81781 130.357 2 32 8.84251 130.393 32 1010 210 4 340
1961058N06132 1961 26 WP MM SUSAN 1961-02-28 12:00:00 TS 9.16667 130.117 main 419 419 O_OO_____OOO__ jtwc_wp WP021961 9.00000 130.300 30 -1 9.10000 130.500 0 1006 9.90000 129.000 TD 25 1006 9.00000 130.300 TC 30 9.00000 130.300 1 30 9.00000 130.300 30 1011 240 4 354
1961058N06132 1961 26 WP MM SUSAN 1961-02-28 15:00:00 TS 9.37505 130.119 main 422 422 P_PP_____PPP__ WP021961 9.24999 130.292 27 -1 9.30750 130.535 0 1006 10.0000 129.043 TD 25 1006 9.24999 130.292 TC 27 9.19280 130.261 1 28 9.24999 130.292 27 1011 240 4 0
1961058N06132 1961 26 WP MM SUSAN 1961-02-28 18:00:00 TS 9.58208 130.139 main 426 426 O_OO_____OPO__ jtwc_wp WP021961 9.50000 130.300 25 -1 9.50000 130.600 0 1006 10.1000 129.100 TD 25 1006 9.50000 130.300 TC 25 9.39249 130.235 1 27 9.50000 130.300 25 1012 240 4 2
1961058N06132 1961 26 WP MM SUSAN 1961-02-28 21:00:00 TS 9.74599 130.134 main 429 429 P_PP_____PPP__ WP021961 9.65750 130.250 25 -1 9.66500 130.693 0 1006 10.2425 129.143 TD 25 1006 9.65750 130.250 TC 25 9.59593 130.217 1 26 9.65750 130.250 25 1012 240 3 354
1961058N06132 1961 26 WP MM SUSAN 1961-03-01 00:00:00 TS 9.90435 130.104 main 435 435 O_OO_____OOO__ jtwc_wp WP021961 9.80000 130.200 25 -1 9.80000 130.800 0 1006 10.4000 129.200 TD 25 1006 9.80000 130.200 TC 25 9.80000 130.200 1 25 9.80000 130.200 25 1013 240 3 353
1961058N06132 1961 26 WP MM SUSAN 1961-03-01 03:00:00 TS 10.0838 130.096 main 439 439 P_PP_____PPP__ WP021961 9.99250 130.200 22 -1 9.90750 130.902 0 1006 10.5275 129.300 TD 25 1006 9.99250 130.200 TC 22 10.0022 130.179 1 22 9.99250 130.200 22 1013 240 4 359
1961058N06132 1961 26 WP MM SUSAN 1961-03-01 06:00:00 TS 10.2817 130.092 main 445 437 O_OO_____OPO__ jtwc_wp WP021961 10.2000 130.200 20 -1 10.0000 131.000 0 1006 10.7000 129.400 TD 25 1006 10.2000 130.200 TC 20 10.2025 130.155 1 20 10.2000 130.200 20 1014 240 4 350
1961058N06132 1961 26 WP MM SUSAN 1961-03-01 09:00:00 TS 10.5158 130.016 main 441 441 P__P_____PPP__ WP021961 10.4025 130.163 17 -1 0 10.9700 129.462 TD 25 1006 10.4025 130.163 TC 17 10.4016 130.128 1 17 10.4025 130.163 17 1015 210 5 346
1961058N06132 1961 26 WP MM SUSAN 1961-03-01 12:00:00 TS 10.7400 129.980 main 449 O__O_____OOO__ jtwc_wp WP021961 10.6000 130.100 15 -1 11.3000 129.500 TD 25 1006 10.6000 130.100 TC 15 10.6000 130.100 1 15 10.6000 130.100 15 1016 180 5 351

デジタル台風データ・検索

IBTrACS Databaseについて

本データベースは、米国NOAAが公開する1842年以降の世界の熱帯低気圧のベストトラックデータアーカイブInternational Best Track Archive for Climate Stewardship (IBTrACS)を、ウェブで閲覧しやすい形式に変換したものです。

最終更新日:2021-10-08